createdAt,value
2018-01-20T00:02:53.619Z,93.8
2018-01-20T00:07:53.204Z,93.6
2018-01-20T00:13:02.012Z,93.9
2018-01-20T00:17:55.964Z,93.9
2018-01-20T00:22:52.970Z,93.5
2018-01-20T00:27:53.172Z,94.5
2018-01-20T00:32:53.858Z,94.7
2018-01-20T00:37:54.846Z,95.9
2018-01-20T00:42:54.702Z,95.4
2018-01-20T00:47:52.865Z,96.3
2018-01-20T00:52:52.885Z,95.3
2018-01-20T00:57:52.722Z,94.7
2018-01-20T01:02:52.808Z,95.3
2018-01-20T01:07:52.853Z,96.3
2018-01-20T01:12:52.873Z,96.1
2018-01-20T01:17:53.163Z,96.2
2018-01-20T01:22:52.830Z,95.6
2018-01-20T01:27:53.003Z,96.2
2018-01-20T01:32:53.097Z,96
2018-01-20T01:37:52.838Z,96.9
2018-01-20T01:42:52.842Z,96.4
2018-01-20T01:47:52.885Z,97
2018-01-20T01:52:54.069Z,96.7
2018-01-20T01:57:52.867Z,96.8
2018-01-20T02:02:52.729Z,96.2
2018-01-20T02:07:52.899Z,97.3
2018-01-20T02:12:54.128Z,96.9
2018-01-20T02:17:52.869Z,97.1
2018-01-20T02:22:53.526Z,97.1
2018-01-20T02:27:52.772Z,97.2
2018-01-20T02:32:53.628Z,97.1
2018-01-20T02:37:53.109Z,97.7
2018-01-20T02:42:52.916Z,98
2018-01-20T02:47:52.765Z,97.6
2018-01-20T02:52:52.960Z,97
2018-01-20T02:57:52.911Z,96.7
2018-01-20T03:02:52.835Z,96.7
2018-01-20T03:07:52.849Z,96.1
2018-01-20T03:12:52.788Z,95.6
2018-01-20T03:17:54.771Z,95.5
2018-01-20T03:22:54.775Z,95.1
2018-01-20T03:27:52.998Z,94.9
2018-01-20T03:32:52.779Z,94.5
2018-01-20T03:37:52.971Z,95.2
2018-01-20T03:42:53.087Z,95.9
2018-01-20T03:47:52.940Z,96.3
2018-01-20T03:52:52.961Z,96
2018-01-20T03:57:53.205Z,96.2
2018-01-20T04:02:52.996Z,96
2018-01-20T04:07:53.307Z,96.3
2018-01-20T04:12:52.892Z,96.4
2018-01-20T04:17:53.690Z,96.7
2018-01-20T04:22:53.560Z,96.3
2018-01-20T04:27:52.934Z,96.7
2018-01-20T04:32:52.954Z,96.9
2018-01-20T04:37:52.991Z,95.9
2018-01-20T04:42:52.915Z,96.3
2018-01-20T04:47:52.981Z,96.1
2018-01-20T04:52:52.815Z,96.5
2018-01-20T04:57:53.018Z,96.3
2018-01-20T05:02:52.825Z,96.9
2018-01-20T05:07:52.982Z,98
2018-01-20T05:12:52.869Z,97.4
2018-01-20T05:17:52.831Z,97.4
2018-01-20T05:22:52.950Z,97.4
2018-01-20T05:27:52.995Z,97.2
2018-01-20T05:32:53.035Z,97
2018-01-20T05:37:52.937Z,97
2018-01-20T05:42:52.976Z,96.6
2018-01-20T05:47:53.036Z,96.8
2018-01-20T05:52:53.042Z,96.9
2018-01-20T05:57:52.961Z,96.3
2018-01-20T06:02:52.996Z,96.2
2018-01-20T06:07:52.981Z,96.2
2018-01-20T06:12:52.885Z,97.5
2018-01-20T06:17:52.885Z,97
2018-01-20T06:22:53.027Z,97.5
2018-01-20T06:27:53.150Z,98.6
2018-01-20T06:32:53.087Z,98.4
2018-01-20T06:37:53.021Z,97.8
2018-01-20T06:42:53.133Z,96.9
2018-01-20T06:47:52.970Z,98
2018-01-20T06:52:53.195Z,98.7
2018-01-20T06:57:52.896Z,98
2018-01-20T07:02:52.902Z,98.4
2018-01-20T07:07:52.912Z,98.7
2018-01-20T07:12:52.934Z,99.3
2018-01-20T07:17:53.071Z,99
2018-01-20T07:22:52.929Z,98.3
2018-01-20T07:27:52.954Z,97.7
2018-01-20T07:32:52.989Z,97.6
2018-01-20T07:37:53.374Z,97.7
2018-01-20T07:43:01.922Z,98.1
2018-01-20T07:48:01.956Z,98.4
2018-01-20T07:53:02.054Z,98.7
2018-01-20T07:58:01.939Z,98.7
2018-01-20T08:03:01.983Z,99.1
2018-01-20T08:08:02.007Z,99.2
2018-01-20T08:13:02.090Z,99
2018-01-20T08:18:02.050Z,98.3
2018-01-20T08:23:02.506Z,98.4
2018-01-20T08:28:01.954Z,98.2
2018-01-20T08:33:01.985Z,97.8
2018-01-20T08:38:01.946Z,97.5
2018-01-20T08:43:01.970Z,95.1
2018-01-20T08:48:01.981Z,95.3
2018-01-20T08:53:01.961Z,94.2
2018-01-20T08:58:01.963Z,94.4
2018-01-20T09:03:02.073Z,93
2018-01-20T09:08:02.205Z,92.5
2018-01-20T09:13:01.976Z,93
2018-01-20T09:18:12.058Z,92.9
2018-01-20T09:23:02.004Z,89.2
2018-01-20T09:28:01.984Z,86.7
2018-01-20T09:33:02.482Z,87.5
2018-01-20T09:38:02.021Z,83
2018-01-20T09:43:01.974Z,84.9
2018-01-20T09:48:01.947Z,86.5
2018-01-20T09:53:02.031Z,84.2
2018-01-20T09:58:01.989Z,84.3
2018-01-20T10:03:03.652Z,84.2
2018-01-20T10:08:02.008Z,84.9
2018-01-20T10:13:02.025Z,83
2018-01-20T10:18:02.068Z,82.3
2018-01-20T10:23:02.102Z,83
2018-01-20T10:28:02.549Z,82.4
2018-01-20T10:33:02.516Z,81.7
2018-01-20T10:38:02.428Z,86.3
2018-01-20T10:43:02.627Z,90
2018-01-20T10:48:02.582Z,91.1
2018-01-20T10:53:02.663Z,92.2
2018-01-20T10:58:02.228Z,92.4
2018-01-20T11:03:02.061Z,91.8
2018-01-20T11:08:02.415Z,91.6
2018-01-20T11:13:02.159Z,92.2
2018-01-20T11:18:02.037Z,92.2
2018-01-20T11:23:02.021Z,92.8
2018-01-20T11:28:02.052Z,92.2
2018-01-20T11:33:12.696Z,91.7
2018-01-20T11:38:12.240Z,91.9
2018-01-20T11:43:02.416Z,92.3
2018-01-20T11:48:02.361Z,92.6
2018-01-20T11:53:02.649Z,92.3
2018-01-20T11:58:02.245Z,91.7
2018-01-20T12:03:02.163Z,91.2
2018-01-20T12:08:02.238Z,91
2018-01-20T12:13:02.083Z,91
2018-01-20T12:18:02.537Z,90.8
2018-01-20T12:23:02.396Z,90.9
2018-01-20T12:28:02.152Z,91.2
2018-01-20T12:33:02.165Z,91.5
2018-01-20T12:38:02.305Z,91.8
2018-01-20T12:43:02.238Z,91.5
2018-01-20T12:48:02.342Z,91.7
2018-01-20T12:53:02.071Z,91
2018-01-20T12:58:02.094Z,91.1
2018-01-20T13:03:03.603Z,89.7
2018-01-20T13:08:03.813Z,89.4
2018-01-20T13:13:02.433Z,90.1
2018-01-20T13:18:02.074Z,89.4
2018-01-20T13:23:03.505Z,89.4
2018-01-20T13:28:02.112Z,88.7
2018-01-20T13:33:02.142Z,87.7
2018-01-20T13:38:04.648Z,86.6
2018-01-20T13:43:02.436Z,85.5
2018-01-20T13:48:02.111Z,86.6
2018-01-20T13:53:02.354Z,86.4
2018-01-20T13:58:06.181Z,85.9
2018-01-20T14:03:12.801Z,84.3
2018-01-20T14:08:02.158Z,85
2018-01-20T14:13:02.665Z,84.5
2018-01-20T14:18:09.766Z,83.9
2018-01-20T14:23:02.843Z,84.9
2018-01-20T14:28:02.310Z,83.6
2018-01-20T14:33:02.664Z,84.2
2018-01-20T14:38:03.963Z,86.1
2018-01-20T14:43:04.723Z,87.6
2018-01-20T14:48:02.264Z,87.6
2018-01-20T14:53:02.246Z,88.7
2018-01-20T14:58:02.257Z,88.8
2018-01-20T15:03:02.249Z,90.1
2018-01-20T15:08:02.863Z,90.1
2018-01-20T15:13:02.365Z,89.9
2018-01-20T15:18:03.843Z,90.5
2018-01-20T15:23:02.460Z,91.7
2018-01-20T15:28:03.743Z,91.3
2018-01-20T15:33:02.753Z,92.3
2018-01-20T15:38:03.617Z,93.2
2018-01-20T15:43:05.531Z,92.6
2018-01-20T15:48:03.731Z,93.2
2018-01-20T15:53:02.567Z,93.2
2018-01-20T15:58:02.331Z,94.2
2018-01-20T16:03:03.918Z,94.5
2018-01-20T16:08:13.308Z,93.6
2018-01-20T16:13:06.021Z,94.6
2018-01-20T16:18:04.753Z,94
2018-01-20T16:23:02.515Z,95.2
2018-01-20T16:28:02.461Z,95.3
2018-01-20T16:33:02.375Z,94.2
2018-01-20T16:38:02.465Z,93.7
2018-01-20T16:43:02.840Z,93.9
2018-01-20T16:48:02.347Z,94.2
2018-01-20T16:53:02.410Z,94
2018-01-20T16:58:02.357Z,93.8
2018-01-20T17:03:03.299Z,93.3
2018-01-20T17:08:02.973Z,93.8
2018-01-20T17:13:02.411Z,92.9
2018-01-20T17:18:02.844Z,93.4
2018-01-20T17:23:04.101Z,94.1
2018-01-20T17:28:02.498Z,93.5
2018-01-20T17:33:02.627Z,94.5
2018-01-20T17:38:02.450Z,93.3
2018-01-20T17:43:03.748Z,92.7
2018-01-20T17:48:02.940Z,92.4
2018-01-20T17:53:02.410Z,92.8
2018-01-20T17:58:02.619Z,93.8
2018-01-20T18:03:02.531Z,94
2018-01-20T18:08:02.576Z,94.6
2018-01-20T18:13:02.437Z,93.2
2018-01-20T18:18:02.418Z,93
2018-01-20T18:23:07.694Z,93.3
2018-01-20T18:28:03.181Z,93.4
2018-01-20T18:33:03.037Z,93.3
2018-01-20T18:38:03.680Z,93.5
2018-01-20T18:43:02.416Z,93.2
2018-01-20T18:48:02.458Z,93.1
2018-01-20T18:53:02.464Z,93.1
2018-01-20T18:58:02.413Z,93.5
2018-01-20T19:03:02.411Z,93.5
2018-01-20T19:08:02.390Z,93.1
2018-01-20T19:13:02.511Z,92.4
2018-01-20T19:18:02.450Z,92.8
2018-01-20T19:23:12.467Z,92.7
2018-01-20T19:28:02.495Z,92.9
2018-01-20T19:33:02.566Z,91.5
2018-01-20T19:38:02.680Z,91.2
2018-01-20T19:43:02.445Z,91.9
2018-01-20T19:48:02.670Z,92.3
2018-01-20T19:53:02.488Z,92.1
2018-01-20T19:58:02.507Z,92.9
2018-01-20T20:03:03.340Z,92.9
2018-01-20T20:08:03.281Z,93.5
2018-01-20T20:13:02.831Z,93.4
2018-01-20T20:18:02.835Z,93.6
2018-01-20T20:23:02.486Z,93.4
2018-01-20T20:28:02.752Z,92.3
2018-01-20T20:33:02.620Z,92.2
2018-01-20T20:38:02.820Z,91.4
2018-01-20T20:43:02.855Z,90.8
2018-01-20T20:48:02.718Z,90.4
2018-01-20T20:53:02.523Z,90
2018-01-20T20:58:03.055Z,90.2
2018-01-20T21:03:02.785Z,90.5
2018-01-20T21:08:02.523Z,90.9
2018-01-20T21:13:02.536Z,90.5
2018-01-20T21:18:02.805Z,90.7
2018-01-20T21:23:03.311Z,91.1
2018-01-20T21:28:02.516Z,91.4
2018-01-20T21:33:02.542Z,91
2018-01-20T21:38:02.577Z,92.2
2018-01-20T21:43:02.860Z,91.4
2018-01-20T21:48:02.671Z,90.8
2018-01-20T21:53:02.823Z,91.5
2018-01-20T21:58:03.776Z,92.2
2018-01-20T22:03:03.402Z,92.7
2018-01-20T22:08:03.235Z,92.1
2018-01-20T22:13:02.541Z,93.5
2018-01-20T22:18:02.555Z,93.5
2018-01-20T22:23:02.547Z,92.9
2018-01-20T22:28:03.415Z,93.2
2018-01-20T22:33:02.547Z,93
2018-01-20T22:38:02.579Z,92.8
2018-01-20T22:43:02.994Z,92.9
2018-01-20T22:48:02.729Z,92.7
2018-01-20T22:53:02.660Z,93.8
2018-01-20T22:58:02.518Z,94.8
2018-01-20T23:03:02.567Z,94.3
2018-01-20T23:08:02.671Z,94
2018-01-20T23:13:02.634Z,94.6
2018-01-20T23:18:02.612Z,96.3
2018-01-20T23:23:02.632Z,96.9
2018-01-20T23:28:03.531Z,97.4
2018-01-20T23:33:02.723Z,98.1
2018-01-20T23:38:02.815Z,97.6
2018-01-20T23:43:02.623Z,98.5
2018-01-20T23:48:02.547Z,98.7
2018-01-20T23:53:02.675Z,98.3
2018-01-20T23:58:02.570Z,98.5
